Time;durP1;ratioP1;P1;durP2;ratioP2;P2;SDS_P1;SDS_P2;PMS_P1;PMS_P2;Temp;Humidity;BMP_temperature;BMP_pressure;BME280_temperature;BME280_humidity;BME280_pressure;Samples;Min_cycle;Max_cycle;Signal;HPM_P1;HPM_P2
2022/08/07 00:00:36;;;;;;;4.90;2.08;;;;;;;16.11;50.45;101356.88;5004615;28;20058;-39
2022/08/07 00:03:06;;;;;;;3.40;2.00;;;;;;;16.07;50.01;101360.41;5010390;28;20085;-39
2022/08/07 00:05:34;;;;;;;6.18;2.53;;;;;;;16.03;50.39;101363.91;5001873;28;20072;-39
2022/08/07 00:08:04;;;;;;;2.58;1.45;;;;;;;16.00;50.78;101358.69;5001428;28;20424;-39
2022/08/07 00:10:33;;;;;;;3.55;2.90;;;;;;;15.96;50.78;101354.34;4993150;28;20061;-39
2022/08/07 00:13:02;;;;;;;4.53;2.47;;;;;;;15.93;50.83;101358.69;5004993;28;20057;-39
2022/08/07 00:15:50;;;;;;;2.60;1.92;;;;;;;15.88;50.79;101360.44;4996743;28;20124;-38
2022/08/07 00:18:19;;;;;;;4.18;2.30;;;;;;;15.86;51.11;101362.22;5006844;28;20120;-39
2022/08/07 00:20:53;;;;;;;4.43;2.50;;;;;;;15.82;51.47;101360.47;5004083;28;20049;-39
2022/08/07 00:23:20;;;;;;;2.97;2.25;;;;;;;15.79;50.97;101360.47;5005542;28;20051;-39
2022/08/07 00:25:48;;;;;;;2.83;2.00;;;;;;;15.76;50.96;101360.50;5006821;28;20478;-39
2022/08/07 00:28:27;;;;;;;3.75;2.20;;;;;;;15.71;51.19;101357.03;5003780;28;20085;-39
2022/08/07 00:31:02;;;;;;;5.28;2.28;;;;;;;15.68;51.55;101364.00;5006088;28;20713;-39
2022/08/07 00:33:39;;;;;;;3.13;1.70;;;;;;;15.63;51.28;101355.31;5010769;28;20085;-39
2022/08/07 00:36:07;;;;;;;3.15;1.92;;;;;;;15.61;51.48;101357.06;5004184;28;20048;-39
2022/08/07 00:38:35;;;;;;;;;;;;;;;15.35;51.98;101349.28;5000834;28;20443;-38
2022/08/07 00:41:05;;;;;;;3.70;2.33;;;;;;;15.51;51.38;101352.75;5001755;28;19952;-39
2022/08/07 00:43:40;;;;;;;3.85;1.58;;;;;;;15.50;51.87;101353.63;5006718;28;20049;-39
2022/08/07 00:46:27;;;;;;;2.35;1.83;;;;;;;15.45;52.14;101340.56;5010169;28;20553;-39
2022/08/07 00:48:53;;;;;;;3.85;2.33;;;;;;;15.44;52.08;101343.19;5002835;28;20042;-39
2022/08/07 00:51:20;;;;;;;4.18;1.95;;;;;;;15.43;52.21;101347.53;5004444;28;20717;-39
2022/08/07 00:53:47;;;;;;;3.28;2.25;;;;;;;15.40;52.19;101348.41;5002942;28;20534;-39
2022/08/07 00:56:22;;;;;;;3.05;2.17;;;;;;;15.37;52.31;101337.97;5006169;28;20042;-39
2022/08/07 00:58:59;;;;;;;4.50;2.28;;;;;;;15.33;52.36;101341.44;5001033;28;20041;-39
2022/08/07 01:01:27;;;;;;;5.57;2.30;;;;;;;15.32;52.31;101344.06;5001438;28;20068;-39
2022/08/07 01:04:07;;;;;;;3.17;2.20;;;;;;;15.29;52.68;101340.59;5006446;28;20141;-39
2022/08/07 01:06:34;;;;;;;5.20;2.35;;;;;;;15.27;52.52;101342.31;5007465;28;20108;-40
2022/08/07 01:09:02;;;;;;;3.17;1.63;;;;;;;15.25;52.88;101343.19;5004037;28;20041;-39
2022/08/07 01:11:29;;;;;;;3.65;2.20;;;;;;;15.22;52.76;101337.97;5001867;28;20070;-40
2022/08/07 01:14:18;;;;;;;3.30;1.83;;;;;;;15.16;53.03;101331.91;5003237;28;20054;-39
2022/08/07 01:16:55;;;;;;;3.10;2.00;;;;;;;15.14;53.07;101330.19;5004567;28;20050;-39
2022/08/07 01:19:25;;;;;;;5.22;3.05;;;;;;;15.13;52.75;101324.09;5005645;28;20125;-39
2022/08/07 01:21:54;;;;;;;4.10;2.55;;;;;;;15.12;53.17;101326.69;4999580;28;20058;-39
2022/08/07 01:24:21;;;;;;;3.10;2.38;;;;;;;15.09;52.79;101322.34;5006748;28;20457;-39
2022/08/07 01:26:49;;;;;;;2.78;1.65;;;;;;;15.08;53.14;101331.06;5005622;28;20045;-39
2022/08/07 01:29:19;;;;;;;5.18;2.55;;;;;;;15.05;53.33;101333.66;5009263;28;20552;-39
2022/08/07 01:31:48;;;;;;;3.13;2.00;;;;;;;15.02;53.63;101325.81;5004134;28;20560;-38
2022/08/07 01:34:16;;;;;;;3.97;1.67;;;;;;;15.01;53.28;101329.31;5000476;28;20430;-38
2022/08/07 01:36:45;;;;;;;3.30;1.92;;;;;;;14.98;53.30;101321.50;5004870;28;20049;-39
2022/08/07 01:39:25;;;;;;;2.88;2.25;;;;;;;14.95;53.63;101331.91;5004557;28;20049;-40
2022/08/07 01:42:05;;;;;;;4.10;2.67;;;;;;;14.90;53.50;101330.19;5000773;28;20464;-40
2022/08/07 01:44:52;;;;;;;2.63;2.00;;;;;;;14.87;53.60;101324.13;4997002;28;20074;-39
2022/08/07 01:47:20;;;;;;;3.13;1.65;;;;;;;14.84;54.38;101325.00;5005115;28;20418;-39
2022/08/07 01:50:07;;;;;;;4.93;2.20;;;;;;;14.80;54.06;101324.97;5006623;28;20049;-38
2022/08/07 01:52:37;;;;;;;5.25;1.98;;;;;;;14.78;54.39;101322.38;5000526;28;20076;-39
2022/08/07 01:55:09;;;;;;;4.80;2.63;;;;;;;14.75;53.71;101314.50;5001201;28;20046;-39
2022/08/07 01:57:51;;;;;;;4.45;2.33;;;;;;;14.72;54.86;101319.72;5000444;28;20041;-39
2022/08/07 02:00:40;;;;;;;4.43;2.15;;;;;;;14.68;54.45;101323.19;5005351;28;20093;-39
2022/08/07 02:03:19;;;;;;;3.08;2.17;;;;;;;14.65;54.03;101317.13;5006279;28;20124;-40
2022/08/07 02:06:02;;;;;;;3.50;2.22;;;;;;;14.64;54.08;101315.38;5002956;28;20129;-39
2022/08/07 02:08:50;;;;;;;2.78;1.90;;;;;;;14.62;54.98;101317.09;5002823;28;20046;-39
2022/08/07 02:11:20;;;;;;;3.25;2.83;;;;;;;14.60;54.51;101316.25;4993546;28;20072;-40
2022/08/07 02:14:08;;;;;;;5.18;2.33;;;;;;;14.57;54.40;101313.63;5003491;28;20144;-39
2022/08/07 02:16:56;;;;;;;2.70;2.10;;;;;;;14.57;54.38;101312.75;5004092;28;20074;-39
2022/08/07 02:19:23;;;;;;;2.42;1.70;;;;;;;14.55;54.25;101310.16;5007266;28;20060;-40
2022/08/07 02:22:12;;;;;;;4.90;2.90;;;;;;;14.54;54.99;101308.41;5005403;28;20115;-39
2022/08/07 02:24:45;;;;;;;6.70;2.90;;;;;;;14.52;55.43;101315.34;5003676;28;20042;-39
2022/08/07 02:27:17;;;;;;;3.58;2.42;;;;;;;14.51;55.03;101305.81;5005136;28;20136;-39
2022/08/07 02:29:46;;;;;;;6.88;2.33;;;;;;;14.48;55.47;101305.78;5001343;28;20533;-40
2022/08/07 02:32:21;;;;;;;3.60;2.28;;;;;;;14.46;54.91;101302.31;5008837;28;20129;-40
2022/08/07 02:34:50;;;;;;;3.75;2.20;;;;;;;14.44;54.79;101298.84;5004810;28;20161;-39
2022/08/07 02:37:19;;;;;;;3.00;2.05;;;;;;;14.42;55.20;101295.38;5001318;28;20049;-39
2022/08/07 02:39:48;;;;;;;3.00;1.75;;;;;;;14.40;54.76;101292.75;4994281;28;20112;-39
2022/08/07 02:42:35;;;;;;;4.07;2.05;;;;;;;14.36;55.49;101289.25;4996118;28;20127;-39
2022/08/07 02:45:05;;;;;;;3.50;2.13;;;;;;;14.36;55.04;101294.47;5004823;28;20049;-40
2022/08/07 02:47:52;;;;;;;6.13;2.75;;;;;;;14.32;55.36;101290.13;5002438;28;20506;-39
2022/08/07 02:50:19;;;;;;;4.00;1.92;;;;;;;14.33;55.59;101296.22;5007361;28;20046;-37
2022/08/07 02:52:54;;;;;;;2.92;1.70;;;;;;;14.30;56.02;101288.41;4997787;28;20383;-39
2022/08/07 02:55:35;;;;;;;3.53;2.03;;;;;;;14.29;55.24;101294.47;5000107;28;20085;-39
2022/08/07 02:58:23;;;;;;;2.78;2.13;;;;;;;14.26;55.34;101292.75;5007141;28;20034;-39
2022/08/07 03:00:56;;;;;;;2.20;1.65;;;;;;;14.27;55.51;101294.47;4997999;28;20065;-39
2022/08/07 03:03:26;;;;;;;3.08;1.85;;;;;;;14.24;55.32;101295.34;5006757;28;20085;-39
2022/08/07 03:06:14;;;;;;;2.90;1.70;;;;;;;14.21;55.79;101292.72;4999490;28;20120;-39
2022/08/07 03:08:51;;;;;;;2.35;1.88;;;;;;;14.20;55.19;101287.50;5001843;28;20050;-40
2022/08/07 03:11:19;;;;;;;4.20;1.55;;;;;;;14.19;55.31;101291.00;4996800;28;20054;-40
2022/08/07 03:13:51;;;;;;;3.63;2.05;;;;;;;14.17;56.28;101292.72;5001964;28;20038;-39
2022/08/07 03:16:28;;;;;;;2.17;1.83;;;;;;;14.16;56.64;101290.97;4998989;28;20058;-38
2022/08/07 03:18:58;;;;;;;2.53;1.98;;;;;;;14.13;55.89;101284.91;5009019;28;20054;-39
2022/08/07 03:21:26;;;;;;;4.10;1.75;;;;;;;14.12;56.69;101277.09;5003575;28;20057;-38
2022/08/07 03:23:55;;;;;;;1.83;1.60;;;;;;;14.10;56.43;101287.50;5004013;28;20512;-39
2022/08/07 03:26:43;;;;;;;;;;;;;;;13.87;56.19;101280.50;5007867;28;20069;-39
2022/08/07 03:29:31;;;;;;;2.33;2.13;;;;;;;14.03;56.37;101283.13;5000258;28;19921;-40
2022/08/07 03:32:06;;;;;;;2.28;1.77;;;;;;;14.04;56.54;101282.25;5007216;28;20074;-39
2022/08/07 03:34:41;;;;;;;2.05;1.58;;;;;;;14.04;55.71;101278.78;5008456;28;20108;-39
2022/08/07 03:37:29;;;;;;;1.52;1.27;;;;;;;14.02;56.16;101276.19;5002554;28;20125;-39
2022/08/07 03:39:58;;;;;;;1.63;1.40;;;;;;;14.01;56.67;101277.91;5002355;28;20049;-39
2022/08/07 03:42:42;;;;;;;1.48;1.38;;;;;;;14.01;57.08;101269.22;5002355;28;20085;-39
2022/08/07 03:45:10;;;;;;;1.50;1.10;;;;;;;14.02;57.25;101273.59;5007570;28;20057;-39
2022/08/07 03:47:37;;;;;;;2.28;1.20;;;;;;;14.00;56.54;101265.78;5007252;28;20109;-39
2022/08/07 03:50:19;;;;;;;2.35;1.77;;;;;;;14.00;57.03;101272.69;5008515;28;20069;-39
2022/08/07 03:52:50;;;;;;;1.77;1.17;;;;;;;14.01;57.40;101271.81;5007326;28;20046;-39
2022/08/07 03:55:17;;;;;;;2.13;1.75;;;;;;;13.99;57.26;101268.38;5000103;28;20046;-39
2022/08/07 03:57:46;;;;;;;4.13;2.28;;;;;;;13.97;56.60;101270.09;5009977;28;20042;-40
2022/08/07 04:00:35;;;;;;;1.20;1.10;;;;;;;13.95;56.72;101264.03;5004491;28;20163;-39
2022/08/07 04:03:03;;;;;;;1.83;1.55;;;;;;;13.93;56.59;101268.34;5004693;28;20493;-39
2022/08/07 04:05:34;;;;;;;1.55;1.10;;;;;;;13.91;57.82;101268.34;5002904;28;20046;-39
2022/08/07 04:08:10;;;;;;;2.40;1.67;;;;;;;13.90;56.98;101268.31;5006898;28;20058;-39
2022/08/07 04:10:38;;;;;;;;;;;;;;;13.67;57.39;101266.50;5009239;28;20465;-39
2022/08/07 04:13:11;;;;;;;4.38;1.30;;;;;;;13.77;57.07;101265.69;5007782;28;19964;-39
2022/08/07 04:15:44;;;;;;;3.15;1.10;;;;;;;13.78;57.07;101264.81;5004045;28;20125;-39
2022/08/07 04:18:14;;;;;;;1.23;0.88;;;;;;;13.75;57.68;101265.69;5007536;28;20414;-40
2022/08/07 04:21:01;;;;;;;3.13;1.50;;;;;;;13.70;56.98;101257.00;5003565;28;20165;-41
2022/08/07 04:23:30;;;;;;;3.78;1.27;;;;;;;13.68;57.27;101258.69;5003704;28;20062;-40
2022/08/07 04:26:17;;;;;;;4.35;1.83;;;;;;;13.66;57.65;101264.78;5005533;28;20076;-39
2022/08/07 04:28:47;;;;;;;1.90;1.42;;;;;;;13.65;57.96;101268.25;5007608;28;20046;-39
2022/08/07 04:31:14;;;;;;;1.85;1.27;;;;;;;13.64;58.05;101269.13;5009641;28;20085;-39
2022/08/07 04:33:46;;;;;;;2.25;2.05;;;;;;;13.61;57.32;101267.34;5010288;28;20605;-39
2022/08/07 04:36:20;;;;;;;3.00;2.13;;;;;;;13.60;57.58;101266.50;5005498;28;20034;-39
2022/08/07 04:38:51;;;;;;;1.75;1.45;;;;;;;13.56;57.43;101264.75;5006549;28;20566;-39
2022/08/07 04:41:18;;;;;;;3.00;1.80;;;;;;;13.53;57.58;101275.13;5005010;28;20049;-39
2022/08/07 04:43:45;;;;;;;2.33;1.92;;;;;;;13.49;57.73;101269.06;5008235;28;20453;-39
2022/08/07 04:55:25;;;;;;;3.85;2.67;;;;;;;13.35;57.95;101268.09;5075441;27;20386;-39
2022/08/07 05:00:56;;;;;;;3.72;1.63;;;;;;;13.32;57.87;101270.66;5124823;27;20716;-39
2022/08/07 05:06:10;;;;;;;4.55;2.15;;;;;;;13.78;59.55;101271.78;5031446;27;20407;-38
2022/08/07 05:11:33;;;;;;;3.65;1.33;;;;;;;13.45;59.52;101276.81;5036700;27;20911;-38
2022/08/07 05:14:39;;;;;;;4.07;1.65;;;;;;;13.37;59.39;101274.16;5022352;28;20691;-39
2022/08/07 05:17:24;;;;;;;3.50;1.92;;;;;;;13.43;58.90;101279.41;5013565;28;20506;-38
2022/08/07 05:20:13;;;;;;;3.25;1.70;;;;;;;13.45;59.36;101279.41;5011487;28;20145;-38
2022/08/07 05:22:45;;;;;;;8.48;1.85;;;;;;;13.48;58.87;101275.09;5013763;28;20064;-39
2022/08/07 05:25:16;;;;;;;4.75;1.65;;;;;;;13.55;59.07;101283.84;5023765;28;20053;-38
2022/08/07 05:28:04;;;;;;;2.45;1.58;;;;;;;13.67;59.98;101289.94;5019901;28;20128;-39
2022/08/07 05:30:47;;;;;;;3.42;1.75;;;;;;;13.80;60.07;101283.94;5020731;28;20046;-38
2022/08/07 05:33:15;;;;;;;4.82;1.92;;;;;;;13.91;59.40;101283.09;5025628;28;20050;-38
2022/08/07 05:35:48;;;;;;;5.32;1.85;;;;;;;13.93;59.63;101283.97;5021919;28;20691;-38
2022/08/07 05:38:16;;;;;;;6.57;1.60;;;;;;;13.92;59.79;101288.31;5019310;28;20045;-38
2022/08/07 05:41:03;;;;;;;3.65;2.10;;;;;;;14.03;59.74;101290.06;5015997;28;20072;-38
2022/08/07 05:43:43;;;;;;;4.07;1.77;;;;;;;14.22;60.26;101301.44;5020477;28;20104;-38
2022/08/07 05:46:30;;;;;;;2.90;1.67;;;;;;;14.43;60.10;101299.72;5013129;28;20129;-38
2022/08/07 05:48:57;;;;;;;3.28;1.98;;;;;;;14.63;60.89;101303.19;5020546;28;20042;-38
2022/08/07 05:51:25;;;;;;;5.00;2.03;;;;;;;14.83;60.88;101310.19;5014854;28;20054;-38
2022/08/07 05:53:59;;;;;;;2.47;1.73;;;;;;;15.04;60.66;101309.31;5023752;28;20058;-39
2022/08/07 05:56:47;;;;;;;3.97;1.58;;;;;;;15.26;59.81;101319.72;5020108;28;20456;-38
2022/08/07 05:59:18;;;;;;;3.30;1.85;;;;;;;15.50;59.83;101324.91;5017800;28;20042;-38
2022/08/07 06:01:48;;;;;;;2.35;1.55;;;;;;;15.68;59.30;101322.19;5013564;28;20100;-38
2022/08/07 06:04:18;;;;;;;3.65;1.83;;;;;;;15.87;59.08;101324.75;5023766;28;20050;-38
2022/08/07 06:06:45;;;;;;;3.95;1.85;;;;;;;16.05;57.89;101321.19;5018203;28;20048;-38
2022/08/07 06:09:22;;;;;;;;;;;;;;;16.03;57.97;101324.72;5018045;28;20058;-39
2022/08/07 06:12:09;;;;;;;2.72;1.30;;;;;;;16.04;57.59;101318.59;5012829;28;19969;-39
2022/08/07 06:14:38;;;;;;;3.10;1.42;;;;;;;15.98;57.23;101322.13;5010483;28;20050;-39
2022/08/07 06:17:05;;;;;;;4.07;1.10;;;;;;;15.90;57.60;101318.63;5015354;28;20052;-38
2022/08/07 06:19:33;;;;;;;3.80;1.40;;;;;;;15.83;57.39;101312.56;5015081;28;20046;-39
2022/08/07 06:22:21;;;;;;;3.28;1.75;;;;;;;15.76;58.13;101308.25;5002593;28;20054;-39
2022/08/07 06:24:53;;;;;;;2.78;1.67;;;;;;;15.76;57.61;101313.47;5001882;28;20077;-40
2022/08/07 06:27:26;;;;;;;3.33;1.25;;;;;;;15.77;58.10;101315.22;5008176;28;20049;-39
2022/08/07 06:30:13;;;;;;;2.78;1.13;;;;;;;15.80;58.19;101302.13;5008456;28;20121;-39
2022/08/07 06:33:00;;;;;;;1.63;0.88;;;;;;;15.89;58.08;101302.13;5004724;28;20204;-39
2022/08/07 06:35:29;;;;;;;4.07;1.20;;;;;;;16.22;58.10;101308.94;5003933;28;20134;-38
2022/08/07 06:38:05;;;;;;;2.42;1.00;;;;;;;16.66;58.21;101306.88;5006383;28;20061;-38
2022/08/07 06:40:41;;;;;;;2.40;1.20;;;;;;;17.11;57.69;101314.38;5006697;28;20042;-38
2022/08/07 06:43:14;;;;;;;3.45;1.00;;;;;;;17.53;57.54;101311.28;5003846;28;20543;-39
2022/08/07 06:45:47;;;;;;;3.35;0.88;;;;;;;17.92;57.56;101313.44;4995909;28;20512;-40
2022/08/07 06:48:15;;;;;;;2.67;0.93;;;;;;;18.31;56.64;101309.47;5002732;28;20077;-40
2022/08/07 06:50:50;;;;;;;2.92;1.00;;;;;;;18.71;56.32;101311.44;5005304;28;20043;-39
2022/08/07 06:53:21;;;;;;;2.47;1.55;;;;;;;19.11;55.17;101309.03;5009162;28;20046;-39
2022/08/07 06:56:10;;;;;;;2.45;0.70;;;;;;;19.56;54.51;101312.59;5005897;28;20081;-39
2022/08/07 06:58:42;;;;;;;2.35;1.13;;;;;;;19.88;53.56;101311.03;5007986;28;20133;-39
2022/08/07 07:01:31;;;;;;;3.45;1.92;;;;;;;20.26;53.84;101314.59;5006257;28;20128;-39
2022/08/07 07:04:14;;;;;;;1.80;0.90;;;;;;;20.67;53.49;101297.88;5007569;28;20057;-39
2022/08/07 07:07:00;;;;;;;3.22;1.00;;;;;;;21.08;52.17;101302.13;5006285;28;20466;-40
2022/08/07 07:09:37;;;;;;;1.75;0.85;;;;;;;21.45;51.42;101306.38;5008583;28;20049;-42
2022/08/07 07:15:21;;;;;;;3.20;0.60;;;;;;;22.26;50.63;101308.41;5022027;28;20915;-40
2022/08/07 07:18:07;;;;;;;1.65;0.70;;;;;;;22.67;50.00;101305.34;5000747;28;20046;-40
2022/08/07 07:20:36;;;;;;;;;;;;;;;23.04;49.30;101306.72;5004916;28;20054;-40
2022/08/07 07:23:06;;;;;;;4.55;1.35;;;;;;;23.23;48.11;101306.06;5005761;28;20362;-40
2022/08/07 07:25:58;;;;;;;1.40;1.02;;;;;;;23.42;46.45;101311.56;5000839;28;20046;-40
2022/08/07 07:28:53;;;;;;;3.42;0.93;;;;;;;23.68;46.88;101306.22;5004524;28;20153;-42
2022/08/07 07:31:46;;;;;;;3.28;0.80;;;;;;;23.85;45.60;101309.06;5004534;28;20120;-40
2022/08/07 07:34:20;;;;;;;2.67;1.00;;;;;;;23.99;46.13;101310.34;5004673;28;20108;-40
2022/08/07 07:36:57;;;;;;;2.78;1.00;;;;;;;24.17;45.15;101302.59;5004825;28;20050;-40
2022/08/07 07:39:41;;;;;;;2.50;1.10;;;;;;;24.39;45.69;101314.03;5004868;28;20058;-40
2022/08/07 07:42:22;;;;;;;1.60;0.80;;;;;;;24.72;44.67;101306.56;5005038;28;20050;-42
2022/08/07 07:45:00;;;;;;;2.72;1.40;;;;;;;24.96;44.38;101314.41;5003504;28;20051;-42
2022/08/07 07:47:29;;;;;;;1.40;0.93;;;;;;;25.21;43.29;101315.97;5002384;28;20125;-41
2022/08/07 07:50:16;;;;;;;3.00;1.05;;;;;;;25.39;42.86;101309.84;5002990;28;20096;-43
2022/08/07 07:53:06;;;;;;;3.72;0.95;;;;;;;25.56;42.60;101321.47;5002317;28;20093;-42
2022/08/07 07:55:46;;;;;;;3.35;1.33;;;;;;;25.74;42.20;101325.06;5004406;28;20057;-40
2022/08/07 07:58:29;;;;;;;1.73;0.73;;;;;;;25.99;41.72;101317.75;5003196;28;20053;-43
2022/08/07 08:01:07;;;;;;;2.30;0.77;;;;;;;26.18;41.55;101326.56;5003330;28;20046;-42
2022/08/07 08:03:56;;;;;;;2.72;1.42;;;;;;;26.31;40.61;101318.88;5003590;28;20082;-41
2022/08/07 08:06:33;;;;;;;2.92;1.33;;;;;;;26.39;40.55;101321.19;5003834;28;20049;-44
2022/08/07 08:09:04;;;;;;;1.75;0.75;;;;;;;26.56;40.52;101311.50;5004565;28;20046;-43
2022/08/07 08:11:34;;;;;;;1.50;0.90;;;;;;;26.58;39.23;101314.94;5001542;28;20046;-42
2022/08/07 08:14:21;;;;;;;3.05;0.93;;;;;;;26.62;39.13;101311.19;5004250;28;20743;-41
2022/08/07 08:16:54;;;;;;;1.52;0.82;;;;;;;26.71;39.79;101303.69;5005481;28;20128;-40
2022/08/07 08:19:26;;;;;;;1.30;0.75;;;;;;;26.81;38.57;101300.47;5001082;28;20494;-43
2022/08/07 08:28:14;;;;;;;2.38;0.63;;;;;;;26.88;38.01;101301.00;4989625;28;20510;-42
2022/08/07 08:30:57;;;;;;;3.05;0.93;;;;;;;27.00;38.16;101304.00;4985980;28;20077;-44
2022/08/07 08:33:29;;;;;;;3.05;0.80;;;;;;;27.16;37.15;101310.25;4989624;28;20121;-41
2022/08/07 08:36:00;;;;;;;1.95;1.02;;;;;;;27.15;37.58;101303.19;4988830;28;20112;-42
2022/08/07 08:38:34;;;;;;;2.78;0.80;;;;;;;27.17;37.65;101298.66;4990479;28;20046;-41
2022/08/07 08:49:11;;;;;;;3.22;2.35;;;;;;;27.22;37.05;101298.38;5062760;28;20857;-46
2022/08/07 08:51:56;;;;;;;3.72;0.80;;;;;;;27.74;37.60;101300.97;5033964;28;20046;-41
2022/08/07 08:54:48;;;;;;;3.00;1.20;;;;;;;28.22;37.08;101291.16;5024030;28;20154;-43
2022/08/07 08:57:28;;;;;;;2.97;0.90;;;;;;;28.13;35.67;101288.16;5019200;28;20046;-44
2022/08/07 09:00:05;;;;;;;3.50;1.55;;;;;;;27.55;36.37;101294.84;5032877;28;20532;-41
2022/08/07 09:02:47;;;;;;;4.03;1.63;;;;;;;27.46;36.34;101295.38;5012626;28;20049;-44
2022/08/07 09:11:13;;;;;;;2.90;1.55;;;;;;;27.30;36.93;101298.00;5095634;27;20913;-41
2022/08/07 09:14:29;;;;;;;3.97;1.42;;;;;;;26.83;37.35;101287.09;5058682;28;20061;-41
2022/08/07 09:19:56;;;;;;;2.95;1.80;;;;;;;26.78;38.17;101283.84;5046173;28;20743;-41
2022/08/07 09:25:23;;;;;;;2.00;0.63;;;;;;;27.64;37.63;101274.91;5079071;27;20371;-40
2022/08/07 09:31:09;;;;;;;2.72;1.40;;;;;;;27.06;36.52;101272.63;5064173;27;20415;-41
2022/08/07 09:36:43;;;;;;;2.42;1.38;;;;;;;27.37;37.21;101275.44;5049198;27;20411;-40
2022/08/07 09:42:06;;;;;;;1.77;1.10;;;;;;;27.58;36.04;101277.84;5034541;28;20425;-45
2022/08/07 09:44:48;;;;;;;4.70;1.25;;;;;;;27.47;36.01;101267.81;5023784;28;20053;-40
2022/08/07 09:53:07;;;;;;;3.75;2.00;;;;;;;28.00;36.16;101267.59;5041058;28;20890;-46
2022/08/07 10:02:01;;;;;;;2.58;1.33;;;;;;;28.59;35.38;101258.84;5066887;27;20399;-42
2022/08/07 10:10:05;;;;;;;3.28;1.10;;;;;;;28.76;34.74;101256.09;5063633;28;20917;-40
2022/08/07 10:13:06;;;;;;;;;;;;;;;28.44;34.43;101255.28;5022881;28;20049;-43
2022/08/07 10:16:08;;;;;;;1.75;0.60;;;;;;;28.53;35.28;101248.53;5024634;28;20284;-44
2022/08/07 10:24:22;;;;;;;2.35;0.93;;;;;;;28.95;34.52;101242.53;5034555;27;20422;-42
2022/08/07 10:30:03;;;;;;;2.83;0.98;;;;;;;29.04;34.18;101241.09;5034536;27;20401;-41
2022/08/07 10:32:58;;;;;;;3.63;1.15;;;;;;;29.04;33.48;101241.09;5022628;28;20103;-42
2022/08/07 10:35:34;;;;;;;2.92;1.15;;;;;;;29.01;34.17;101241.28;5036492;28;20144;-40
2022/08/07 10:41:13;;;;;;;3.63;1.67;;;;;;;29.23;34.60;101231.00;5043937;27;20394;-43
2022/08/07 10:44:15;;;;;;;2.40;1.52;;;;;;;29.37;32.78;101234.56;5023510;28;20077;-40
2022/08/07 10:46:54;;;;;;;3.25;2.08;;;;;;;29.40;32.96;101230.84;5027348;28;20081;-41
2022/08/07 10:52:08;;;;;;;3.45;1.38;;;;;;;29.83;32.43;101227.25;5063367;27;20368;-42
2022/08/07 10:54:45;;;;;;;2.33;1.00;;;;;;;29.86;32.00;101227.03;5025575;28;20052;-42
2022/08/07 11:00:19;;;;;;;2.70;2.25;;;;;;;30.12;32.37;101221.78;5024420;27;20398;-41
2022/08/07 11:03:15;;;;;;;10.10;2.05;;;;;;;30.25;32.69;101227.16;5019832;28;20116;-43
2022/08/07 11:08:42;;;;;;;2.08;0.90;;;;;;;30.45;30.71;101231.16;5036999;27;20871;-44
2022/08/07 11:13:52;;;;;;;11.30;2.75;;;;;;;30.31;31.30;101210.72;5044482;28;20395;-43
2022/08/07 11:16:47;;;;;;;3.03;2.72;;;;;;;30.41;31.51;101205.59;5004438;28;20073;-43
2022/08/07 11:19:29;;;;;;;5.28;2.10;;;;;;;30.60;31.81;101204.31;5003775;28;20046;-42
2022/08/07 11:25:15;;;;;;;2.60;0.90;;;;;;;30.50;30.95;101202.28;5064878;28;20375;-40
2022/08/07 11:30:25;;;;;;;2.35;0.90;;;;;;;29.93;31.49;101190.97;5026872;27;20405;-40
2022/08/07 11:33:33;;;;;;;3.72;1.20;;;;;;;29.73;31.60;101185.16;5017543;28;20058;-42
2022/08/07 11:36:46;;;;;;;2.38;1.00;;;;;;;29.68;31.54;101181.91;4998821;28;20497;-44
2022/08/07 11:42:26;;;;;;;3.97;2.00;;;;;;;29.38;32.00;101185.63;5028510;27;21595;-43
2022/08/07 11:48:11;;;;;;;3.03;1.98;;;;;;;29.36;31.74;101187.50;5053182;28;20729;-41
2022/08/07 12:10:02;;;;;;;3.30;1.90;;;;;;;29.96;29.86;101158.69;5061170;27;20762;-39
2022/08/07 12:12:41;;;;;;;2.53;2.20;;;;;;;29.83;31.18;101165.84;5072749;28;20121;-41
2022/08/07 12:15:29;;;;;;;3.00;1.25;;;;;;;29.76;30.90;101152.88;5080319;28;20455;-41
2022/08/07 12:18:40;;;;;;;2.38;1.73;;;;;;;29.68;31.69;101157.03;5068711;28;20075;-42
2022/08/07 12:21:50;;;;;;;1.67;0.93;;;;;;;29.80;31.74;101160.69;5070779;28;20524;-41
2022/08/07 18:02:00;;;;;;;2.40;1.40;;;;;;;26.05;34.53;101007.78;5029769;28;20912;-48
2022/08/07 18:12:30;;;;;;;3.20;0.80;;;;;;;25.50;35.52;101011.47;5039600;27;20413;-45
2022/08/07 18:15:05;;;;;;;4.82;0.85;;;;;;;25.41;35.69;101008.34;5018185;28;20041;-44
2022/08/07 18:17:57;;;;;;;4.25;0.95;;;;;;;25.25;35.99;101012.69;5035653;28;20045;-45
2022/08/07 18:20:56;;;;;;;7.70;0.95;;;;;;;25.19;35.65;101011.19;5038098;28;20073;-42
2022/08/07 18:35:24;;;;;;;1.05;0.70;;;;;;;24.64;36.04;101021.72;5076928;27;20401;-45
2022/08/07 18:43:48;;;;;;;14.40;2.53;;;;;;;24.39;35.88;101027.28;5052912;27;20421;-44
2022/08/07 18:46:32;;;;;;;6.68;1.45;;;;;;;24.33;36.17;101031.06;5022082;28;20055;-42
2022/08/07 18:49:23;;;;;;;3.28;2.20;;;;;;;24.25;36.16;101027.91;5016246;28;20053;-43
2022/08/07 19:00:17;;;;;;;3.13;0.80;;;;;;;24.11;36.84;101028.47;5022318;27;20409;-44
2022/08/07 19:03:23;;;;;;;3.88;1.10;;;;;;;23.93;37.66;101030.13;5017879;28;20069;-40
2022/08/07 19:06:11;;;;;;;1.95;0.68;;;;;;;23.89;37.23;101040.00;5018607;28;20054;-41
2022/08/07 19:09:07;;;;;;;1.45;0.70;;;;;;;23.72;38.22;101043.38;5017162;28;20050;-45
2022/08/07 19:12:09;;;;;;;3.63;1.13;;;;;;;23.65;38.22;101052.47;5015343;28;20159;-42
2022/08/07 19:15:00;;;;;;;9.93;1.38;;;;;;;23.53;38.29;101049.44;5015156;28;20057;-45
2022/08/07 19:18:06;;;;;;;5.82;0.90;;;;;;;23.44;38.30;101055.09;5006675;28;20092;-45
2022/08/07 19:28:34;;;;;;;1.73;0.80;;;;;;;23.24;38.44;101064.66;5100554;27;20417;-43
2022/08/07 19:31:26;;;;;;;2.10;1.10;;;;;;;23.13;39.00;101061.59;5080881;28;20052;-45
2022/08/07 19:34:18;;;;;;;2.22;0.82;;;;;;;23.03;39.35;101067.22;5086754;28;21062;-43
2022/08/07 19:37:08;;;;;;;5.10;0.55;;;;;;;22.96;39.19;101071.88;5081012;28;20036;-41
2022/08/07 19:39:49;;;;;;;4.22;0.75;;;;;;;22.90;39.44;101076.56;5082661;28;20066;-45
2022/08/07 19:42:29;;;;;;;4.47;0.75;;;;;;;22.80;39.93;101076.88;5081930;28;20498;-45
2022/08/07 19:45:01;;;;;;;2.45;0.90;;;;;;;22.73;40.09;101075.41;5083359;28;20456;-41
2022/08/07 19:47:39;;;;;;;13.98;1.40;;;;;;;22.63;39.76;101079.31;5081868;28;20497;-43
2022/08/07 19:50:09;;;;;;;5.07;0.52;;;;;;;22.54;40.06;101086.63;5073593;28;20052;-42
2022/08/07 19:52:57;;;;;;;5.72;1.35;;;;;;;22.45;40.18;101086.94;5081887;28;20472;-45
2022/08/07 19:55:28;;;;;;;7.97;1.23;;;;;;;22.40;40.59;101094.19;5083847;28;20054;-43
2022/08/07 19:58:17;;;;;;;3.67;1.05;;;;;;;22.29;40.56;101094.56;5083932;28;20040;-42
2022/08/07 20:00:56;;;;;;;3.38;0.93;;;;;;;22.23;40.57;101093.00;5083384;28;20076;-44
2022/08/07 20:03:26;;;;;;;2.70;0.68;;;;;;;22.17;40.30;101102.00;5079773;28;20056;-43
2022/08/07 20:06:05;;;;;;;1.35;0.50;;;;;;;22.09;40.74;101099.63;5071281;28;20055;-45
2022/08/07 20:08:42;;;;;;;2.40;1.05;;;;;;;22.02;40.81;101095.47;5078090;28;20052;-47
2022/08/07 20:11:20;;;;;;;3.13;0.60;;;;;;;21.94;40.89;101093.09;5075309;28;20049;-44
2022/08/07 20:14:08;;;;;;;2.15;0.65;;;;;;;21.85;41.28;101097.81;5082099;28;20131;-45
2022/08/07 20:16:56;;;;;;;2.83;1.13;;;;;;;21.76;41.13;101101.63;5080066;28;20388;-44
2022/08/07 20:19:28;;;;;;;6.45;1.42;;;;;;;21.67;41.70;101100.97;5073413;28;20117;-43
2022/08/07 20:22:20;;;;;;;3.80;0.50;;;;;;;21.60;41.55;101103.84;5076171;28;20133;-42
2022/08/07 20:25:04;;;;;;;2.88;0.75;;;;;;;21.54;41.91;101111.06;5071390;28;20489;-40
2022/08/07 20:27:32;;;;;;;1.15;0.63;;;;;;;21.44;41.96;101104.34;5072348;28;20149;-45
2022/08/07 20:30:14;;;;;;;3.17;0.93;;;;;;;21.37;41.83;101115.97;5074986;28;20052;-47
2022/08/07 20:32:53;;;;;;;1.13;0.57;;;;;;;21.33;41.75;101107.31;5071220;28;20131;-46
2022/08/07 20:35:33;;;;;;;3.22;0.80;;;;;;;21.25;41.80;101110.22;5070671;28;20051;-46
2022/08/07 20:38:05;;;;;;;2.28;0.63;;;;;;;21.20;42.10;101117.38;5071181;28;20135;-41
2022/08/07 20:40:38;;;;;;;2.30;0.80;;;;;;;21.13;42.10;101121.09;5065321;28;20053;-47
2022/08/07 20:43:08;;;;;;;2.65;0.60;;;;;;;21.08;42.13;101123.88;5065104;28;20500;-46